createdAt,value
2022-08-08T00:01:00.273Z,102704.56
2022-08-08T00:03:59.025Z,102697.38
2022-08-08T00:06:37.948Z,102707.31
2022-08-08T00:09:33.111Z,102705.81
2022-08-08T00:12:09.422Z,102702.31
2022-08-08T00:15:00.168Z,102706.97
2022-08-08T00:17:58.787Z,102704.94
2022-08-08T00:20:41.065Z,102698.34
2022-08-08T00:23:19.899Z,102704.06
2022-08-08T00:25:54.715Z,102705.22
2022-08-08T00:28:36.887Z,102698.41
2022-08-08T00:32:20.137Z,102695.22
2022-08-08T00:34:41.077Z,102696.56
2022-08-08T00:37:47.074Z,102700.53
2022-08-08T00:41:11.326Z,102702.63
2022-08-08T00:44:11.007Z,102694.16
2022-08-08T00:47:23.212Z,102689.81
2022-08-08T00:50:09.200Z,102685.28
2022-08-08T00:52:53.968Z,102678.47
2022-08-08T00:55:52.796Z,102685.00
2022-08-08T00:58:54.613Z,102678.41
2022-08-08T01:02:04.969Z,102686.34
2022-08-08T01:05:28.911Z,102691.56
2022-08-08T01:08:46.785Z,102691.75
2022-08-08T01:11:39.760Z,102695.53
2022-08-08T01:14:53.676Z,102689.38
2022-08-08T01:17:59.161Z,102686.84
2022-08-08T01:20:44.194Z,102686.94
2022-08-08T01:23:55.213Z,102682.72
2022-08-08T01:26:51.678Z,102689.03
2022-08-08T01:29:59.191Z,102690.44
2022-08-08T01:32:46.819Z,102701.41
2022-08-08T01:35:31.979Z,102699.81
2022-08-08T01:38:27.101Z,102697.16
2022-08-08T01:40:58.962Z,102692.28
2022-08-08T01:43:38.811Z,102693.28
2022-08-08T01:46:42.811Z,102698.56
2022-08-08T01:49:51.890Z,102698.41
2022-08-08T01:53:57.128Z,102691.41
2022-08-08T01:56:29.381Z,102695.00
2022-08-08T01:58:38.884Z,102698.50
2022-08-08T02:02:00.228Z,102697.00
2022-08-08T02:04:38.242Z,102691.97
2022-08-08T02:07:36.963Z,102693.88
2022-08-08T02:10:36.845Z,102688.69
2022-08-08T02:13:52.526Z,102697.28
2022-08-08T02:16:28.574Z,102684.06
2022-08-08T02:19:26.845Z,102696.72
2022-08-08T02:22:28.406Z,102703.13
2022-08-08T02:25:11.527Z,102700.41
2022-08-08T02:28:01.058Z,102695.38
2022-08-08T02:31:04.863Z,102700.97
2022-08-08T02:34:14.807Z,102691.25
2022-08-08T02:37:53.019Z,102693.31
2022-08-08T02:40:16.779Z,102693.53
2022-08-08T02:44:32.884Z,102692.00
2022-08-08T02:45:51.415Z,102695.38
2022-08-08T02:48:54.666Z,102691.81
2022-08-08T02:51:56.365Z,102692.00
2022-08-08T02:55:20.672Z,102692.84
2022-08-08T02:58:10.805Z,102701.81
2022-08-08T03:01:08.835Z,102705.59
2022-08-08T03:05:02.765Z,102703.22
2022-08-08T03:07:09.579Z,102700.69
2022-08-08T03:10:31.504Z,102692.75
2022-08-08T03:13:02.659Z,102701.16
2022-08-08T03:16:07.554Z,102705.75
2022-08-08T03:18:57.259Z,102707.63
2022-08-08T03:21:26.997Z,102707.16
2022-08-08T03:24:07.514Z,102708.19
2022-08-08T03:26:42.631Z,102716.13
2022-08-08T03:29:20.819Z,102714.44
2022-08-08T03:32:21.919Z,102718.75
2022-08-08T03:34:56.647Z,102717.06
2022-08-08T03:37:59.313Z,102727.69
2022-08-08T03:40:11.031Z,102713.59
2022-08-08T03:42:58.571Z,102718.75
2022-08-08T03:46:06.015Z,102718.56
2022-08-08T03:49:09.434Z,102716.88
2022-08-08T03:51:15.511Z,102720.25
2022-08-08T03:53:47.821Z,102723.00
2022-08-08T03:56:31.262Z,102724.03
2022-08-08T03:58:59.299Z,102727.69
2022-08-08T04:02:31.804Z,102732.72
2022-08-08T04:04:23.053Z,102742.16
2022-08-08T04:06:57.857Z,102742.22
2022-08-08T04:09:28.391Z,102750.34
2022-08-08T04:12:13.576Z,102746.88
2022-08-08T04:14:44.928Z,102754.59
2022-08-08T04:17:22.557Z,102747.34
2022-08-08T04:19:59.646Z,102749.63
2022-08-08T04:22:29.504Z,102747.84
2022-08-08T04:24:56.358Z,102752.16
2022-08-08T04:28:01.362Z,102751.81
2022-08-08T04:30:18.435Z,102745.59
2022-08-08T04:32:49.824Z,102752.97
2022-08-08T04:35:17.522Z,102754.66
2022-08-08T04:37:46.478Z,102759.00
2022-08-08T04:40:15.957Z,102757.03
2022-08-08T04:42:46.756Z,102753.34
2022-08-08T04:45:23.726Z,102752.59
2022-08-08T04:47:52.280Z,102763.19
2022-08-08T04:50:25.537Z,102768.25
2022-08-08T04:53:00.954Z,102768.25
2022-08-08T04:55:47.857Z,102765.63
2022-08-08T04:58:19.362Z,102756.00
2022-08-08T05:00:48.301Z,102756.75
2022-08-08T05:03:18.779Z,102758.38
2022-08-08T05:06:13.345Z,102769.41
2022-08-08T05:08:45.621Z,102773.38
2022-08-08T05:11:18.753Z,102769.50
2022-08-08T05:13:58.272Z,102768.44
2022-08-08T05:16:50.925Z,102771.66
2022-08-08T05:20:12.761Z,102775.53
2022-08-08T05:22:01.366Z,102777.69
2022-08-08T05:24:27.811Z,102773.91
2022-08-08T05:26:57.491Z,102781.25
2022-08-08T05:29:27.075Z,102777.66
2022-08-08T05:32:03.111Z,102782.59
2022-08-08T05:34:55.371Z,102779.06
2022-08-08T05:37:39.092Z,102776.16
2022-08-08T05:40:11.946Z,102783.44
2022-08-08T05:42:43.950Z,102783.25
2022-08-08T05:45:25.543Z,102780.72
2022-08-08T05:48:01.596Z,102785.94
2022-08-08T05:50:36.050Z,102784.28
2022-08-08T05:53:22.894Z,102789.41
2022-08-08T05:56:10.179Z,102774.63
2022-08-08T05:58:54.177Z,102784.69
2022-08-08T06:01:56.250Z,102776.81
2022-08-08T06:04:22.875Z,102777.78
2022-08-08T06:06:52.711Z,102780.69
2022-08-08T06:09:59.176Z,102781.91
2022-08-08T06:12:14.305Z,102781.06
2022-08-08T06:14:47.926Z,102782.09
2022-08-08T06:17:19.638Z,102775.78
2022-08-08T06:19:47.774Z,102772.16
2022-08-08T06:25:00.615Z,102784.66
2022-08-08T06:27:48.161Z,102787.94
2022-08-08T06:30:26.122Z,102793.25
2022-08-08T06:33:01.297Z,102795.69
2022-08-08T06:36:07.191Z,102788.00
2022-08-08T06:38:21.602Z,102792.13
2022-08-08T06:41:03.874Z,102792.25
2022-08-08T06:43:35.739Z,102791.94
2022-08-08T06:46:04.266Z,102793.69
2022-08-08T06:48:36.301Z,102788.72
2022-08-08T06:51:07.776Z,102785.63
2022-08-08T06:53:39.669Z,102792.38
2022-08-08T06:56:08.579Z,102796.09
2022-08-08T06:58:35.456Z,102791.97
2022-08-08T07:01:11.602Z,102796.31
2022-08-08T07:04:36.819Z,102788.38
2022-08-08T07:06:56.072Z,102790.84
2022-08-08T07:09:45.105Z,102796.78
2022-08-08T07:12:30.549Z,102796.53
2022-08-08T07:15:05.480Z,102797.97
2022-08-08T07:18:01.888Z,102798.63
2022-08-08T07:20:34.879Z,102804.38
2022-08-08T07:24:02.038Z,102802.00
2022-08-08T07:26:29.025Z,102796.75
2022-08-08T07:29:05.367Z,102797.34
2022-08-08T07:31:35.388Z,102808.25
2022-08-08T07:34:04.255Z,102813.44
2022-08-08T07:36:42.066Z,102812.66
2022-08-08T07:39:18.059Z,102820.03
2022-08-08T07:42:03.584Z,102816.09
2022-08-08T07:44:37.356Z,102817.00
2022-08-08T07:47:06.754Z,102818.22
2022-08-08T07:49:33.876Z,102813.41
2022-08-08T07:52:01.971Z,102812.22
2022-08-08T07:54:38.039Z,102812.75
2022-08-08T07:57:36.162Z,102805.78
2022-08-08T08:00:13.416Z,102814.19
2022-08-08T08:02:43.205Z,102810.84
2022-08-08T08:05:15.580Z,102810.84
2022-08-08T08:07:43.003Z,102815.69
2022-08-08T08:10:18.008Z,102811.75
2022-08-08T08:13:25.710Z,102823.31
2022-08-08T08:16:13.156Z,102816.53
2022-08-08T08:18:55.479Z,102825.47
2022-08-08T08:21:44.151Z,102825.44
2022-08-08T08:24:12.764Z,102818.66
2022-08-08T08:26:39.374Z,102821.81
2022-08-08T08:29:13.871Z,102825.28
2022-08-08T08:31:43.029Z,102823.88
2022-08-08T08:34:09.553Z,102825.03
2022-08-08T08:36:36.038Z,102831.84
2022-08-08T08:39:07.559Z,102827.97
2022-08-08T08:41:48.575Z,102824.41
2022-08-08T08:44:16.497Z,102831.91
2022-08-08T08:46:50.976Z,102836.66
2022-08-08T08:49:25.636Z,102838.19
2022-08-08T08:51:58.983Z,102822.34
2022-08-08T08:54:27.866Z,102824.59
2022-08-08T08:57:00.323Z,102835.31
2022-08-08T08:59:58.944Z,102834.47
2022-08-08T09:02:21.822Z,102844.06
2022-08-08T09:04:50.296Z,102852.13
2022-08-08T09:07:23.559Z,102847.13
2022-08-08T09:09:55.124Z,102844.06
2022-08-08T09:12:27.390Z,102840.25
2022-08-08T09:14:56.953Z,102846.56
2022-08-08T09:17:40.736Z,102837.69
2022-08-08T09:21:58.977Z,102834.47
2022-08-08T09:22:58.709Z,102824.84
2022-08-08T09:25:36.265Z,102838.75
2022-08-08T09:28:12.443Z,102840.28
2022-08-08T09:31:12.896Z,102823.16
2022-08-08T09:34:28.294Z,102837.06
2022-08-08T09:36:32.516Z,102836.06
2022-08-08T09:39:00.191Z,102838.69
2022-08-08T09:42:14.061Z,102838.88
2022-08-08T09:44:49.446Z,102839.09
2022-08-08T09:48:03.844Z,102839.09
2022-08-08T09:50:13.898Z,102842.47
2022-08-08T09:52:57.490Z,102845.34
2022-08-08T09:55:31.727Z,102849.00
2022-08-08T09:58:40.560Z,102844.19
2022-08-08T10:01:15.521Z,102849.91
2022-08-08T10:04:02.433Z,102855.84
2022-08-08T10:06:32.404Z,102858.00
2022-08-08T10:09:03.997Z,102854.38
2022-08-08T10:12:26.932Z,102854.47
2022-08-08T10:14:34.850Z,102859.94
2022-08-08T10:17:57.235Z,102864.84
2022-08-08T10:20:04.273Z,102858.94
2022-08-08T10:22:33.516Z,102858.97
2022-08-08T10:25:05.773Z,102861.50
2022-08-08T10:27:42.133Z,102863.38
2022-08-08T10:30:16.456Z,102858.47
2022-08-08T10:33:00.306Z,102849.53
2022-08-08T10:36:09.282Z,102853.59
2022-08-08T10:38:19.540Z,102843.75
2022-08-08T10:40:51.787Z,102833.53
2022-08-08T10:43:18.595Z,102830.69
2022-08-08T10:45:57.139Z,102824.03
2022-08-08T10:48:58.453Z,102834.13
2022-08-08T10:51:31.488Z,102830.91
2022-08-08T10:54:07.659Z,102839.25
2022-08-08T10:56:35.545Z,102837.09
2022-08-08T10:59:10.148Z,102843.34
2022-08-08T11:01:39.386Z,102832.66
2022-08-08T11:04:10.413Z,102824.00
2022-08-08T11:06:41.781Z,102825.34
2022-08-08T11:09:19.977Z,102836.69
2022-08-08T11:12:04.517Z,102820.72
2022-08-08T11:14:58.070Z,102825.75
2022-08-08T11:17:29.303Z,102817.00
2022-08-08T11:20:27.529Z,102816.88
2022-08-08T11:22:59.622Z,102811.22
2022-08-08T11:25:53.220Z,102805.81
2022-08-08T11:28:23.796Z,102808.44
2022-08-08T11:30:55.763Z,102803.31
2022-08-08T11:33:51.886Z,102804.50
2022-08-08T11:36:14.369Z,102816.44
2022-08-08T11:38:55.511Z,102825.13
2022-08-08T11:41:28.193Z,102822.72
2022-08-08T11:44:00.527Z,102819.28
2022-08-08T11:46:31.407Z,102816.75
2022-08-08T11:49:00.052Z,102820.38
2022-08-08T11:51:38.792Z,102816.34
2022-08-08T11:54:26.630Z,102811.81
2022-08-08T11:56:56.607Z,102809.19
2022-08-08T11:59:58.421Z,102810.69
2022-08-08T12:02:33.442Z,102802.06
2022-08-08T12:05:13.157Z,102792.72
2022-08-08T12:07:50.937Z,102799.56
2022-08-08T12:10:23.583Z,102806.78
2022-08-08T12:13:00.861Z,102808.78
2022-08-08T12:15:39.917Z,102795.50
2022-08-08T12:18:25.343Z,102794.06
2022-08-08T12:20:54.892Z,102779.81
2022-08-08T12:23:43.462Z,102773.44
2022-08-08T12:26:28.496Z,102794.94
2022-08-08T12:29:17.962Z,102796.84
2022-08-08T12:31:53.919Z,102782.19
2022-08-08T12:34:37.154Z,102791.69
2022-08-08T12:37:05.537Z,102774.28
2022-08-08T12:39:37.183Z,102774.13
2022-08-08T12:42:22.096Z,102781.53
2022-08-08T12:45:54.175Z,102780.53
2022-08-08T12:48:10.584Z,102769.13
2022-08-08T12:50:54.819Z,102770.44
2022-08-08T12:53:37.806Z,102773.13
2022-08-08T12:56:19.315Z,102771.34
2022-08-08T12:58:52.220Z,102789.44
2022-08-08T13:01:24.764Z,102795.63
2022-08-08T13:04:18.880Z,102791.13
2022-08-08T13:07:07.030Z,102788.94
2022-08-08T13:09:43.095Z,102777.16
2022-08-08T13:12:44.482Z,102780.66
2022-08-08T13:15:16.419Z,102772.03
2022-08-08T13:18:08.782Z,102774.41
2022-08-08T13:20:30.374Z,102776.25
2022-08-08T13:23:41.236Z,102782.91
2022-08-08T13:25:49.980Z,102780.78
2022-08-08T13:28:17.508Z,102785.38
2022-08-08T13:30:44.240Z,102782.41
2022-08-08T13:33:18.426Z,102775.22
2022-08-08T13:35:50.602Z,102778.13
2022-08-08T13:38:18.056Z,102776.78
2022-08-08T13:40:45.172Z,102771.38
2022-08-08T13:43:13.624Z,102777.38
2022-08-08T13:45:43.146Z,102777.31
2022-08-08T13:48:15.547Z,102768.88
2022-08-08T13:50:50.942Z,102763.09
2022-08-08T13:53:36.262Z,102760.41
2022-08-08T13:56:07.053Z,102763.22
2022-08-08T13:58:49.199Z,102760.94
2022-08-08T14:01:33.138Z,102771.19
2022-08-08T14:04:21.356Z,102771.19
2022-08-08T14:06:48.161Z,102767.13
2022-08-08T14:09:25.548Z,102771.31
2022-08-08T14:12:00.493Z,102770.44
2022-08-08T14:14:45.130Z,102765.03
2022-08-08T14:17:22.497Z,102767.53
2022-08-08T14:20:14.723Z,102762.81
2022-08-08T14:22:55.105Z,102764.69
2022-08-08T14:25:22.587Z,102757.53
2022-08-08T14:28:00.008Z,102762.78
2022-08-08T14:30:33.635Z,102761.06
2022-08-08T14:33:00.294Z,102762.00
2022-08-08T14:35:35.076Z,102770.66
2022-08-08T14:38:09.536Z,102764.94
2022-08-08T14:40:52.962Z,102769.19
2022-08-08T14:44:01.867Z,102770.47
2022-08-08T14:46:15.281Z,102764.75
2022-08-08T14:48:57.144Z,102764.00
2022-08-08T14:51:30.944Z,102762.00
2022-08-08T14:54:13.668Z,102765.34
2022-08-08T14:56:42.789Z,102768.41
2022-08-08T14:59:31.708Z,102771.97
2022-08-08T15:01:58.791Z,102776.53
2022-08-08T15:04:26.237Z,102771.81
2022-08-08T15:06:52.736Z,102771.13
2022-08-08T15:09:19.388Z,102762.72
2022-08-08T15:11:53.154Z,102772.19
2022-08-08T15:14:20.778Z,102768.81
2022-08-08T15:16:52.758Z,102770.50
2022-08-08T15:19:19.655Z,102762.75
2022-08-08T15:21:50.080Z,102764.94
2022-08-08T15:24:16.978Z,102761.91
2022-08-08T15:26:52.966Z,102768.94
2022-08-08T15:29:24.508Z,102770.13
2022-08-08T15:32:17.863Z,102768.44
2022-08-08T15:34:42.193Z,102755.25
2022-08-08T15:37:09.158Z,102763.00
2022-08-08T15:39:38.505Z,102767.22
2022-08-08T15:42:13.173Z,102769.13
2022-08-08T15:44:44.939Z,102765.44
2022-08-08T15:47:15.753Z,102764.59
2022-08-08T15:49:47.590Z,102760.38
2022-08-08T15:52:15.846Z,102763.09
2022-08-08T15:54:46.241Z,102763.44
2022-08-08T15:57:15.596Z,102764.78
2022-08-08T16:00:25.359Z,102778.38
2022-08-08T16:02:31.313Z,102763.91
2022-08-08T16:04:59.849Z,102758.06
2022-08-08T16:07:39.429Z,102761.56
2022-08-08T16:13:11.081Z,102763.44
2022-08-08T16:13:27.732Z,102762.22
2022-08-08T16:15:57.734Z,102756.66
2022-08-08T16:18:26.099Z,102759.84
2022-08-08T16:20:52.475Z,102757.34
2022-08-08T16:23:18.930Z,102759.69
2022-08-08T16:25:54.673Z,102761.69
2022-08-08T16:28:34.125Z,102764.69
2022-08-08T16:31:07.978Z,102769.75
2022-08-08T16:33:38.855Z,102766.06
2022-08-08T16:36:08.935Z,102764.84
2022-08-08T16:38:44.712Z,102767.69
2022-08-08T16:41:20.718Z,102758.97
2022-08-08T16:43:50.862Z,102763.00
2022-08-08T16:46:43.259Z,102759.94
2022-08-08T16:49:07.978Z,102760.59
2022-08-08T16:55:03.842Z,102766.63
2022-08-08T16:55:24.256Z,102768.00
2022-08-08T16:57:22.972Z,102761.25
2022-08-08T17:00:01.124Z,102758.03
2022-08-08T17:02:44.237Z,102751.50
2022-08-08T17:05:12.927Z,102756.16
2022-08-08T17:07:40.836Z,102752.84
2022-08-08T17:10:10.087Z,102755.69
2022-08-08T17:12:38.356Z,102748.44
2022-08-08T17:15:20.460Z,102748.94
2022-08-08T17:18:02.589Z,102754.84
2022-08-08T17:20:31.151Z,102765.25
2022-08-08T17:23:16.878Z,102748.63
2022-08-08T17:25:53.613Z,102757.50
2022-08-08T17:28:22.685Z,102749.75
2022-08-08T17:31:01.623Z,102760.44
2022-08-08T17:34:35.752Z,102762.38
2022-08-08T17:36:28.666Z,102771.34
2022-08-08T17:39:05.131Z,102774.72
2022-08-08T17:41:48.480Z,102778.91
2022-08-08T17:44:27.041Z,102797.53
2022-08-08T17:46:55.350Z,102798.69
2022-08-08T17:49:24.935Z,102797.19
2022-08-08T17:51:55.062Z,102798.81
2022-08-08T17:54:22.270Z,102798.75
2022-08-08T17:56:53.839Z,102801.22
2022-08-08T17:59:23.491Z,102802.38
2022-08-08T18:02:00.120Z,102802.53
2022-08-08T18:04:32.717Z,102799.84
2022-08-08T18:07:00.937Z,102789.06
2022-08-08T18:09:37.865Z,102795.09
2022-08-08T18:12:04.989Z,102788.50
2022-08-08T18:14:36.827Z,102790.78
2022-08-08T18:17:04.245Z,102790.97
2022-08-08T18:19:45.515Z,102803.00
2022-08-08T18:22:33.008Z,102799.16
2022-08-08T18:24:59.515Z,102802.38
2022-08-08T18:27:26.324Z,102798.19
2022-08-08T18:29:57.487Z,102817.44
2022-08-08T18:32:23.862Z,102809.00
2022-08-08T18:34:50.267Z,102819.03
2022-08-08T18:37:34.470Z,102810.75
2022-08-08T18:40:01.328Z,102818.94
2022-08-08T18:42:27.736Z,102813.47
2022-08-08T18:44:57.543Z,102816.44
2022-08-08T18:47:33.550Z,102817.34
2022-08-08T18:50:02.463Z,102819.91
2022-08-08T18:52:30.654Z,102821.44
2022-08-08T18:54:59.466Z,102818.41
2022-08-08T18:57:40.688Z,102833.19
2022-08-08T19:00:15.826Z,102826.84
2022-08-08T19:02:55.459Z,102849.84
2022-08-08T19:05:31.861Z,102844.66
2022-08-08T19:08:08.514Z,102847.06
2022-08-08T19:10:36.130Z,102847.84
2022-08-08T19:13:03.459Z,102853.22
2022-08-08T19:15:33.820Z,102858.84
2022-08-08T19:18:31.877Z,102857.72
2022-08-08T19:20:50.787Z,102853.22
2022-08-08T19:23:18.759Z,102870.50
2022-08-08T19:26:19.791Z,102866.28
2022-08-08T19:28:36.473Z,102868.94
2022-08-08T19:31:08.960Z,102868.09
2022-08-08T19:33:52.224Z,102876.66
2022-08-08T19:36:27.434Z,102884.38
2022-08-08T19:38:54.205Z,102880.16
2022-08-08T19:41:21.495Z,102877.59
2022-08-08T19:44:03.095Z,102883.63
2022-08-08T19:46:33.168Z,102886.13
2022-08-08T19:48:59.861Z,102887.63
2022-08-08T19:51:34.947Z,102887.31
2022-08-08T19:54:09.916Z,102896.31
2022-08-08T19:56:41.417Z,102890.69
2022-08-08T19:59:09.600Z,102910.03
2022-08-08T20:02:00.916Z,102906.22
2022-08-08T20:04:23.584Z,102900.69
2022-08-08T20:06:50.865Z,102906.56
2022-08-08T20:09:22.856Z,102904.28
2022-08-08T20:11:49.933Z,102905.41
2022-08-08T20:14:34.259Z,102910.00
2022-08-08T20:17:02.114Z,102901.66
2022-08-08T20:19:34.283Z,102915.41
2022-08-08T20:22:13.360Z,102912.28
2022-08-08T20:24:55.397Z,102913.66
2022-08-08T20:27:21.808Z,102921.31
2022-08-08T20:30:00.016Z,102916.38
2022-08-08T20:32:28.180Z,102914.09
2022-08-08T20:35:01.452Z,102916.88
2022-08-08T20:37:53.082Z,102919.69
2022-08-08T20:40:16.596Z,102918.00
2022-08-08T20:42:55.194Z,102924.44
2022-08-08T20:45:58.169Z,102920.19
2022-08-08T20:48:09.577Z,102908.31
2022-08-08T20:50:36.169Z,102913.63
2022-08-08T20:53:06.815Z,102917.28
2022-08-08T20:55:43.063Z,102920.94
2022-08-08T20:58:23.282Z,102922.88
2022-08-08T21:00:50.032Z,102915.81
2022-08-08T21:03:17.068Z,102921.44
2022-08-08T21:05:58.565Z,102911.25
2022-08-08T21:08:36.531Z,102916.88
2022-08-08T21:11:12.475Z,102924.38
2022-08-08T21:13:41.271Z,102914.94
2022-08-08T21:16:20.900Z,102917.88
2022-08-08T21:18:57.149Z,102917.13
2022-08-08T21:21:39.345Z,102915.69
2022-08-08T21:24:22.367Z,102929.53
2022-08-08T21:26:54.177Z,102929.75
2022-08-08T21:29:21.666Z,102933.38
2022-08-08T21:32:07.866Z,102926.84
2022-08-08T21:34:49.730Z,102929.66
2022-08-08T21:37:19.214Z,102935.84
2022-08-08T21:39:56.559Z,102934.13
2022-08-08T21:42:23.708Z,102928.19
2022-08-08T21:44:58.893Z,102929.91
2022-08-08T21:48:05.599Z,102922.03
2022-08-08T21:50:14.111Z,102916.69
2022-08-08T21:54:32.857Z,102924.81
2022-08-08T21:56:27.037Z,102924.47
2022-08-08T21:58:13.874Z,102926.41
2022-08-08T22:00:41.044Z,102931.72
2022-08-08T22:03:07.841Z,102922.50
2022-08-08T22:05:37.756Z,102920.69
2022-08-08T22:08:08.031Z,102928.59
2022-08-08T22:10:35.624Z,102922.63
2022-08-08T22:13:18.623Z,102927.13
2022-08-08T22:15:59.109Z,102934.41
2022-08-08T22:18:31.109Z,102933.91
2022-08-08T22:21:11.092Z,102931.50
2022-08-08T22:23:49.412Z,102938.03
2022-08-08T22:26:29.817Z,102940.94
2022-08-08T22:29:05.086Z,102938.28
2022-08-08T22:32:01.950Z,102935.00
2022-08-08T22:34:39.546Z,102937.06
2022-08-08T22:37:07.028Z,102940.38
2022-08-08T22:40:01.471Z,102944.28
2022-08-08T22:42:32.027Z,102940.13
2022-08-08T22:45:01.758Z,102944.75
2022-08-08T22:47:34.028Z,102941.97
2022-08-08T22:50:03.490Z,102943.06
2022-08-08T22:52:33.643Z,102946.19
2022-08-08T22:55:05.329Z,102935.03
2022-08-08T22:57:43.904Z,102947.84
2022-08-08T23:00:13.333Z,102941.28
2022-08-08T23:02:40.045Z,102939.81
2022-08-08T23:05:14.410Z,102945.25
2022-08-08T23:07:51.202Z,102947.31
2022-08-08T23:10:25.322Z,102948.63
2022-08-08T23:12:53.370Z,102953.31
2022-08-08T23:16:37.577Z,102950.63
2022-08-08T23:18:08.340Z,102952.03
2022-08-08T23:20:43.537Z,102946.81
2022-08-08T23:23:11.082Z,102956.75
2022-08-08T23:25:48.306Z,102953.56
2022-08-08T23:28:15.809Z,102956.47
2022-08-08T23:30:44.215Z,102945.00
2022-08-08T23:33:19.015Z,102952.22
2022-08-08T23:36:07.384Z,102957.25
2022-08-08T23:38:34.627Z,102966.91
2022-08-08T23:41:01.982Z,102960.88
2022-08-08T23:43:45.768Z,102962.03
2022-08-08T23:49:04.472Z,102957.41
2022-08-08T23:49:15.505Z,102966.75
2022-08-08T23:52:04.318Z,102973.03
2022-08-08T23:54:42.010Z,102968.03
2022-08-08T23:57:27.597Z,102967.41
